sensor_id;sensor_type;location;lat;lon;timestamp;pressure;altitude;pressure_sealevel;temperature;humidity
56719;BME280;42597;40.636;0.278;2023-06-10T00:01:45;96846.09;;;23.75;66.02
56719;BME280;42597;40.636;0.278;2023-06-10T00:04:16;96846.22;;;23.97;65.71
56719;BME280;42597;40.636;0.278;2023-06-10T00:06:44;96847.94;;;23.65;61.88
56719;BME280;42597;40.636;0.278;2023-06-10T00:09:13;96851.84;;;23.93;64.34
56719;BME280;42597;40.636;0.278;2023-06-10T00:11:40;96848.25;;;23.54;63.07
56719;BME280;42597;40.636;0.278;2023-06-10T00:14:06;96848.44;;;23.76;64.28
56719;BME280;42597;40.636;0.278;2023-06-10T00:16:33;96848.31;;;24.05;67.03
56719;BME280;42597;40.636;0.278;2023-06-10T00:19:03;96849.97;;;24.03;63.11
56719;BME280;42597;40.636;0.278;2023-06-10T00:21:30;96848.66;;;24.20;69.04
56719;BME280;42597;40.636;0.278;2023-06-10T00:23:56;96844.66;;;24.47;68.20
56719;BME280;42597;40.636;0.278;2023-06-10T00:26:22;96839.47;;;24.49;68.15
56719;BME280;42597;40.636;0.278;2023-06-10T00:28:49;96840.53;;;24.51;67.61
56719;BME280;42597;40.636;0.278;2023-06-10T00:31:15;96837.66;;;24.55;67.97
56719;BME280;42597;40.636;0.278;2023-06-10T00:33:41;96830.00;;;23.86;62.76
56719;BME280;42597;40.636;0.278;2023-06-10T00:36:06;96831.00;;;24.05;67.01
56719;BME280;42597;40.636;0.278;2023-06-10T00:38:32;96828.84;;;24.47;67.33
56719;BME280;42597;40.636;0.278;2023-06-10T00:40:58;96826.09;;;24.34;67.37
56719;BME280;42597;40.636;0.278;2023-06-10T00:43:25;96820.25;;;24.20;66.16
56719;BME280;42597;40.636;0.278;2023-06-10T00:45:51;96829.19;;;24.36;67.32
56719;BME280;42597;40.636;0.278;2023-06-10T00:48:18;96824.44;;;24.50;66.80
56719;BME280;42597;40.636;0.278;2023-06-10T00:50:46;96821.78;;;24.46;67.23
56719;BME280;42597;40.636;0.278;2023-06-10T00:53:12;96824.34;;;24.15;65.81
56719;BME280;42597;40.636;0.278;2023-06-10T00:55:39;96826.41;;;24.24;62.06
56719;BME280;42597;40.636;0.278;2023-06-10T00:58:05;96832.19;;;24.42;66.34
56719;BME280;42597;40.636;0.278;2023-06-10T01:00:31;96834.38;;;24.47;66.09
56719;BME280;42597;40.636;0.278;2023-06-10T01:02:56;96827.72;;;24.57;65.63
56719;BME280;42597;40.636;0.278;2023-06-10T01:05:24;96822.53;;;24.47;65.55
56719;BME280;42597;40.636;0.278;2023-06-10T01:08:22;96822.72;;;23.92;59.83
56719;BME280;42597;40.636;0.278;2023-06-10T01:11:00;96816.50;;;24.13;66.58
56719;BME280;42597;40.636;0.278;2023-06-10T01:13:27;96820.56;;;24.47;65.57
56719;BME280;42597;40.636;0.278;2023-06-10T01:15:57;96811.19;;;23.55;60.09
56719;BME280;42597;40.636;0.278;2023-06-10T01:18:30;96808.25;;;23.75;60.60
56719;BME280;42597;40.636;0.278;2023-06-10T01:20:56;96815.09;;;22.71;57.90
56719;BME280;42597;40.636;0.278;2023-06-10T01:23:22;96809.19;;;22.72;58.58
56719;BME280;42597;40.636;0.278;2023-06-10T01:26:04;96806.78;;;22.87;57.56
56719;BME280;42597;40.636;0.278;2023-06-10T01:31:36;96798.94;;;22.73;56.89
56719;BME280;42597;40.636;0.278;2023-06-10T01:34:08;96812.63;;;22.76;56.97
56719;BME280;42597;40.636;0.278;2023-06-10T01:36:36;96807.38;;;22.65;56.13
56719;BME280;42597;40.636;0.278;2023-06-10T01:39:04;96802.06;;;22.42;56.57
56719;BME280;42597;40.636;0.278;2023-06-10T01:41:31;96802.78;;;22.92;56.32
56719;BME280;42597;40.636;0.278;2023-06-10T01:43:57;96803.47;;;22.34;56.38
56719;BME280;42597;40.636;0.278;2023-06-10T01:46:23;96796.03;;;22.63;56.02
56719;BME280;42597;40.636;0.278;2023-06-10T01:48:48;96812.09;;;22.36;56.49
56719;BME280;42597;40.636;0.278;2023-06-10T01:51:14;96805.19;;;22.44;55.67
56719;BME280;42597;40.636;0.278;2023-06-10T01:53:40;96802.25;;;22.35;56.31
56719;BME280;42597;40.636;0.278;2023-06-10T01:56:06;96811.38;;;22.48;55.90
56719;BME280;42597;40.636;0.278;2023-06-10T01:58:32;96807.59;;;22.42;55.33
56719;BME280;42597;40.636;0.278;2023-06-10T02:00:57;96809.44;;;22.16;56.22
56719;BME280;42597;40.636;0.278;2023-06-10T02:03:23;96805.69;;;22.39;55.78
56719;BME280;42597;40.636;0.278;2023-06-10T02:05:49;96805.78;;;22.97;60.69
56719;BME280;42597;40.636;0.278;2023-06-10T02:08:15;96807.19;;;22.73;56.82
56719;BME280;42597;40.636;0.278;2023-06-10T02:10:40;96805.34;;;22.82;55.54
56719;BME280;42597;40.636;0.278;2023-06-10T02:13:06;96808.00;;;22.86;56.14
56719;BME280;42597;40.636;0.278;2023-06-10T02:15:32;96806.56;;;23.52;63.95
56719;BME280;42597;40.636;0.278;2023-06-10T02:17:57;96806.22;;;22.96;57.70
56719;BME280;42597;40.636;0.278;2023-06-10T02:20:23;96816.69;;;22.39;56.52
56719;BME280;42597;40.636;0.278;2023-06-10T02:22:49;96814.56;;;22.92;57.24
56719;BME280;42597;40.636;0.278;2023-06-10T02:25:14;96809.56;;;22.41;55.47
56719;BME280;42597;40.636;0.278;2023-06-10T02:27:40;96811.56;;;22.25;55.23
56719;BME280;42597;40.636;0.278;2023-06-10T02:30:06;96814.66;;;22.27;55.29
56719;BME280;42597;40.636;0.278;2023-06-10T02:32:31;96819.47;;;22.23;55.31
56719;BME280;42597;40.636;0.278;2023-06-10T02:34:57;96815.16;;;22.22;55.39
56719;BME280;42597;40.636;0.278;2023-06-10T02:37:23;96823.09;;;22.20;54.75
56719;BME280;42597;40.636;0.278;2023-06-10T02:39:48;96818.44;;;22.33;54.60
56719;BME280;42597;40.636;0.278;2023-06-10T02:42:14;96814.47;;;22.34;54.27
56719;BME280;42597;40.636;0.278;2023-06-10T02:44:39;96814.97;;;22.61;53.69
56719;BME280;42597;40.636;0.278;2023-06-10T02:47:05;96817.06;;;22.41;54.53
56719;BME280;42597;40.636;0.278;2023-06-10T02:49:31;96812.41;;;22.38;54.99
56719;BME280;42597;40.636;0.278;2023-06-10T02:51:56;96806.38;;;22.27;56.20
56719;BME280;42597;40.636;0.278;2023-06-10T02:54:23;96817.25;;;22.17;57.57
56719;BME280;42597;40.636;0.278;2023-06-10T02:56:49;96811.81;;;22.14;58.83
56719;BME280;42597;40.636;0.278;2023-06-10T02:59:14;96816.22;;;22.28;58.82
56719;BME280;42597;40.636;0.278;2023-06-10T03:01:40;96811.94;;;22.07;61.14
56719;BME280;42597;40.636;0.278;2023-06-10T03:04:07;96800.56;;;22.25;61.59
56719;BME280;42597;40.636;0.278;2023-06-10T03:06:33;96806.59;;;22.20;61.24
56719;BME280;42597;40.636;0.278;2023-06-10T03:09:02;96806.16;;;22.21;59.34
56719;BME280;42597;40.636;0.278;2023-06-10T03:11:32;96806.38;;;22.43;59.61
56719;BME280;42597;40.636;0.278;2023-06-10T03:13:58;96812.69;;;22.73;63.04
56719;BME280;42597;40.636;0.278;2023-06-10T03:16:24;96810.09;;;23.11;63.44
56719;BME280;42597;40.636;0.278;2023-06-10T03:18:50;96817.06;;;23.15;63.37
56719;BME280;42597;40.636;0.278;2023-06-10T03:21:16;96808.53;;;22.97;60.38
56719;BME280;42597;40.636;0.278;2023-06-10T03:23:42;96814.34;;;23.28;64.47
56719;BME280;42597;40.636;0.278;2023-06-10T03:26:07;96803.13;;;23.48;65.10
56719;BME280;42597;40.636;0.278;2023-06-10T03:28:33;96818.16;;;22.89;61.58
56719;BME280;42597;40.636;0.278;2023-06-10T03:30:58;96812.25;;;22.29;62.19
56719;BME280;42597;40.636;0.278;2023-06-10T03:33:24;96825.31;;;22.08;61.92
56719;BME280;42597;40.636;0.278;2023-06-10T03:35:50;96820.28;;;21.87;61.42
56719;BME280;42597;40.636;0.278;2023-06-10T03:38:16;96810.88;;;22.21;60.47
56719;BME280;42597;40.636;0.278;2023-06-10T03:40:41;96817.03;;;22.86;63.85
56719;BME280;42597;40.636;0.278;2023-06-10T03:43:07;96814.59;;;22.76;59.06
56719;BME280;42597;40.636;0.278;2023-06-10T03:45:33;96813.34;;;22.48;63.28
56719;BME280;42597;40.636;0.278;2023-06-10T03:47:59;96824.91;;;23.17;65.02
56719;BME280;42597;40.636;0.278;2023-06-10T03:50:24;96825.53;;;21.98;62.50
56719;BME280;42597;40.636;0.278;2023-06-10T03:52:51;96816.34;;;21.88;63.61
56719;BME280;42597;40.636;0.278;2023-06-10T03:55:17;96823.66;;;22.11;63.28
56719;BME280;42597;40.636;0.278;2023-06-10T03:57:43;96819.03;;;22.86;66.18
56719;BME280;42597;40.636;0.278;2023-06-10T04:00:09;96807.06;;;22.47;62.44
56719;BME280;42597;40.636;0.278;2023-06-10T04:02:38;96813.16;;;23.00;66.18
56719;BME280;42597;40.636;0.278;2023-06-10T04:05:14;96816.75;;;23.26;65.00
56719;BME280;42597;40.636;0.278;2023-06-10T04:07:40;96818.00;;;23.38;65.08
56719;BME280;42597;40.636;0.278;2023-06-10T04:10:08;96814.34;;;22.70;62.34
56719;BME280;42597;40.636;0.278;2023-06-10T04:12:35;96824.91;;;21.74;63.35
56719;BME280;42597;40.636;0.278;2023-06-10T04:15:01;96818.72;;;22.84;66.58
56719;BME280;42597;40.636;0.278;2023-06-10T04:17:27;96820.25;;;22.85;62.10
56719;BME280;42597;40.636;0.278;2023-06-10T04:19:52;96820.91;;;22.60;61.14
56719;BME280;42597;40.636;0.278;2023-06-10T04:22:20;96821.00;;;22.56;62.64
56719;BME280;42597;40.636;0.278;2023-06-10T04:24:46;96814.16;;;22.15;63.49
56719;BME280;42597;40.636;0.278;2023-06-10T04:27:11;96818.94;;;22.11;61.81
56719;BME280;42597;40.636;0.278;2023-06-10T04:29:37;96812.72;;;21.38;65.20
56719;BME280;42597;40.636;0.278;2023-06-10T04:32:03;96824.06;;;21.20;65.08
56719;BME280;42597;40.636;0.278;2023-06-10T04:34:30;96820.22;;;21.54;64.00
56719;BME280;42597;40.636;0.278;2023-06-10T04:36:56;96819.09;;;21.88;63.67
56719;BME280;42597;40.636;0.278;2023-06-10T04:39:22;96815.16;;;22.05;62.91
56719;BME280;42597;40.636;0.278;2023-06-10T04:41:47;96823.22;;;22.61;66.36
56719;BME280;42597;40.636;0.278;2023-06-10T04:44:13;96821.94;;;22.95;65.27
56719;BME280;42597;40.636;0.278;2023-06-10T04:46:39;96830.66;;;22.15;62.61
56719;BME280;42597;40.636;0.278;2023-06-10T04:49:05;96823.47;;;21.85;63.92
56719;BME280;42597;40.636;0.278;2023-06-10T04:51:31;96826.03;;;21.40;65.96
56719;BME280;42597;40.636;0.278;2023-06-10T04:54:00;96829.63;;;21.17;67.18
56719;BME280;42597;40.636;0.278;2023-06-10T04:56:29;96835.50;;;21.39;65.95
56719;BME280;42597;40.636;0.278;2023-06-10T04:58:56;96832.50;;;21.30;66.29
56719;BME280;42597;40.636;0.278;2023-06-10T05:01:22;96837.84;;;21.57;62.14
56719;BME280;42597;40.636;0.278;2023-06-10T05:03:48;96834.88;;;22.20;65.75
56719;BME280;42597;40.636;0.278;2023-06-10T05:06:13;96834.59;;;22.31;61.55
56719;BME280;42597;40.636;0.278;2023-06-10T05:08:39;96845.69;;;21.75;65.32
56719;BME280;42597;40.636;0.278;2023-06-10T05:11:04;96839.88;;;21.89;64.68
56719;BME280;42597;40.636;0.278;2023-06-10T05:13:30;96838.28;;;21.91;63.93
56719;BME280;42597;40.636;0.278;2023-06-10T05:15:55;96846.16;;;21.89;63.17
56719;BME280;42597;40.636;0.278;2023-06-10T05:18:21;96849.50;;;21.81;64.20
56719;BME280;42597;40.636;0.278;2023-06-10T05:20:46;96846.03;;;22.46;66.49
56719;BME280;42597;40.636;0.278;2023-06-10T05:23:12;96849.84;;;22.97;65.90
56719;BME280;42597;40.636;0.278;2023-06-10T05:25:37;96851.81;;;22.18;63.45
56719;BME280;42597;40.636;0.278;2023-06-10T05:28:03;96853.19;;;22.27;65.58
56719;BME280;42597;40.636;0.278;2023-06-10T05:30:29;96867.78;;;22.07;64.83
56719;BME280;42597;40.636;0.278;2023-06-10T05:32:54;96861.94;;;22.54;65.44
56719;BME280;42597;40.636;0.278;2023-06-10T05:35:21;96855.88;;;21.94;65.35
56719;BME280;42597;40.636;0.278;2023-06-10T05:37:47;96864.38;;;21.83;65.17
56719;BME280;42597;40.636;0.278;2023-06-10T05:40:12;96860.66;;;21.74;65.52
56719;BME280;42597;40.636;0.278;2023-06-10T05:42:38;96866.34;;;21.83;65.34
56719;BME280;42597;40.636;0.278;2023-06-10T05:45:05;96865.84;;;22.40;64.90
56719;BME280;42597;40.636;0.278;2023-06-10T05:47:31;96866.59;;;22.41;64.72
56719;BME280;42597;40.636;0.278;2023-06-10T05:49:57;96864.88;;;22.31;65.09
56719;BME280;42597;40.636;0.278;2023-06-10T05:52:22;96873.63;;;22.09;67.69
56719;BME280;42597;40.636;0.278;2023-06-10T05:54:49;96871.34;;;22.24;66.84
56719;BME280;42597;40.636;0.278;2023-06-10T05:57:15;96868.31;;;22.18;67.99
56719;BME280;42597;40.636;0.278;2023-06-10T05:59:41;96874.13;;;22.04;69.61
56719;BME280;42597;40.636;0.278;2023-06-10T06:02:06;96870.16;;;22.05;71.25
56719;BME280;42597;40.636;0.278;2023-06-10T06:04:32;96877.91;;;22.10;72.99
56719;BME280;42597;40.636;0.278;2023-06-10T06:06:58;96880.47;;;22.01;75.46
56719;BME280;42597;40.636;0.278;2023-06-10T06:09:23;96880.19;;;22.15;76.71
56719;BME280;42597;40.636;0.278;2023-06-10T06:11:49;96871.94;;;22.32;77.74
56719;BME280;42597;40.636;0.278;2023-06-10T06:14:14;96867.44;;;22.54;76.77
56719;BME280;42597;40.636;0.278;2023-06-10T06:16:40;96881.72;;;22.82;74.40
56719;BME280;42597;40.636;0.278;2023-06-10T06:19:06;96883.44;;;22.43;79.41
56719;BME280;42597;40.636;0.278;2023-06-10T06:21:31;96881.06;;;22.61;79.43
56719;BME280;42597;40.636;0.278;2023-06-10T06:23:57;96880.44;;;22.54;79.94
56719;BME280;42597;40.636;0.278;2023-06-10T06:26:23;96875.91;;;22.63;79.07
56719;BME280;42597;40.636;0.278;2023-06-10T06:28:48;96885.00;;;22.60;78.56
56719;BME280;42597;40.636;0.278;2023-06-10T06:31:14;96878.41;;;22.87;77.48
56719;BME280;42597;40.636;0.278;2023-06-10T06:33:40;96884.47;;;22.98;76.83
56719;BME280;42597;40.636;0.278;2023-06-10T06:36:05;96884.06;;;23.42;72.26
56719;BME280;42597;40.636;0.278;2023-06-10T06:38:31;96890.94;;;23.62;69.29
56719;BME280;42597;40.636;0.278;2023-06-10T06:40:56;96888.81;;;23.41;75.32
56719;BME280;42597;40.636;0.278;2023-06-10T06:43:27;96903.47;;;23.38;73.17
56719;BME280;42597;40.636;0.278;2023-06-10T06:45:53;96898.09;;;23.47;71.20
56719;BME280;42597;40.636;0.278;2023-06-10T06:48:18;96898.75;;;23.51;70.03
56719;BME280;42597;40.636;0.278;2023-06-10T06:50:44;96899.06;;;23.70;70.35
56719;BME280;42597;40.636;0.278;2023-06-10T06:53:10;96906.34;;;23.47;73.26
56719;BME280;42597;40.636;0.278;2023-06-10T06:55:35;96903.28;;;23.45;72.44
56719;BME280;42597;40.636;0.278;2023-06-10T06:58:01;96914.31;;;23.45;73.07
56719;BME280;42597;40.636;0.278;2023-06-10T07:00:29;96912.19;;;23.66;73.28
56719;BME280;42597;40.636;0.278;2023-06-10T07:02:55;96910.84;;;23.70;72.44
56719;BME280;42597;40.636;0.278;2023-06-10T07:05:23;96919.72;;;23.78;71.75
56719;BME280;42597;40.636;0.278;2023-06-10T07:07:48;96920.94;;;24.02;70.83
56719;BME280;42597;40.636;0.278;2023-06-10T07:10:20;96905.25;;;23.99;72.23
56719;BME280;42597;40.636;0.278;2023-06-10T07:12:47;96922.28;;;24.10;72.14
56719;BME280;42597;40.636;0.278;2023-06-10T07:15:13;96914.56;;;23.93;72.74
56719;BME280;42597;40.636;0.278;2023-06-10T07:17:39;96925.25;;;24.16;72.18
56719;BME280;42597;40.636;0.278;2023-06-10T07:20:05;96918.97;;;24.16;71.38
56719;BME280;42597;40.636;0.278;2023-06-10T07:22:30;96926.38;;;24.19;72.68
56719;BME280;42597;40.636;0.278;2023-06-10T07:24:56;96923.19;;;24.33;73.27
56719;BME280;42597;40.636;0.278;2023-06-10T07:27:22;96931.22;;;24.27;73.15
56719;BME280;42597;40.636;0.278;2023-06-10T07:29:47;96930.50;;;24.52;71.68
56719;BME280;42597;40.636;0.278;2023-06-10T07:32:13;96931.03;;;24.47;73.57
56719;BME280;42597;40.636;0.278;2023-06-10T07:34:38;96931.38;;;24.49;73.79
56719;BME280;42597;40.636;0.278;2023-06-10T07:37:04;96934.88;;;24.62;73.39
56719;BME280;42597;40.636;0.278;2023-06-10T07:39:30;96935.53;;;24.67;73.96
56719;BME280;42597;40.636;0.278;2023-06-10T07:41:55;96933.13;;;24.69;75.06
56719;BME280;42597;40.636;0.278;2023-06-10T07:44:23;96927.66;;;24.91;73.32
56719;BME280;42597;40.636;0.278;2023-06-10T07:46:48;96930.41;;;24.91;73.33
56719;BME280;42597;40.636;0.278;2023-06-10T07:49:14;96939.06;;;24.80;72.49
56719;BME280;42597;40.636;0.278;2023-06-10T07:51:40;96943.59;;;24.86;70.25
56719;BME280;42597;40.636;0.278;2023-06-10T07:54:05;96936.78;;;25.00;69.68
56719;BME280;42597;40.636;0.278;2023-06-10T07:56:31;96944.53;;;25.05;70.33
56719;BME280;42597;40.636;0.278;2023-06-10T07:58:57;96935.25;;;24.99;72.21
56719;BME280;42597;40.636;0.278;2023-06-10T08:01:23;96931.09;;;24.82;71.96
56719;BME280;42597;40.636;0.278;2023-06-10T08:03:49;96941.34;;;24.94;71.54
56719;BME280;42597;40.636;0.278;2023-06-10T08:06:15;96938.50;;;24.85;71.33
56719;BME280;42597;40.636;0.278;2023-06-10T08:08:42;96935.59;;;25.01;71.90
56719;BME280;42597;40.636;0.278;2023-06-10T08:11:12;96943.44;;;25.03;69.82
56719;BME280;42597;40.636;0.278;2023-06-10T08:13:38;96932.34;;;25.16;68.94
56719;BME280;42597;40.636;0.278;2023-06-10T08:16:04;96944.06;;;25.07;70.17
56719;BME280;42597;40.636;0.278;2023-06-10T08:18:30;96940.75;;;25.25;67.81
56719;BME280;42597;40.636;0.278;2023-06-10T08:20:56;96941.53;;;25.13;69.05
56719;BME280;42597;40.636;0.278;2023-06-10T08:23:21;96950.63;;;25.13;70.11
56719;BME280;42597;40.636;0.278;2023-06-10T08:25:47;96945.63;;;25.21;71.00
56719;BME280;42597;40.636;0.278;2023-06-10T08:28:12;96944.94;;;25.51;70.65
56719;BME280;42597;40.636;0.278;2023-06-10T08:30:38;96948.34;;;25.55;69.92
56719;BME280;42597;40.636;0.278;2023-06-10T08:33:04;96945.72;;;25.74;71.85
56719;BME280;42597;40.636;0.278;2023-06-10T08:35:29;96946.03;;;25.54;69.83
56719;BME280;42597;40.636;0.278;2023-06-10T08:37:55;96948.41;;;25.65;68.27
56719;BME280;42597;40.636;0.278;2023-06-10T08:40:21;96952.56;;;25.82;68.50
56719;BME280;42597;40.636;0.278;2023-06-10T08:43:07;96947.44;;;26.02;66.89
56719;BME280;42597;40.636;0.278;2023-06-10T08:45:35;96951.38;;;25.92;68.19
56719;BME280;42597;40.636;0.278;2023-06-10T08:48:05;96954.53;;;26.03;67.32
56719;BME280;42597;40.636;0.278;2023-06-10T08:50:35;96947.19;;;26.09;68.44
56719;BME280;42597;40.636;0.278;2023-06-10T08:53:05;96958.59;;;26.21;64.75
56719;BME280;42597;40.636;0.278;2023-06-10T08:55:33;96954.69;;;26.40;63.32
56719;BME280;42597;40.636;0.278;2023-06-10T08:58:01;96958.59;;;26.21;62.78
56719;BME280;42597;40.636;0.278;2023-06-10T09:00:28;96960.97;;;26.00;63.99
56719;BME280;42597;40.636;0.278;2023-06-10T09:02:56;96954.50;;;26.25;64.37
56719;BME280;42597;40.636;0.278;2023-06-10T09:05:22;96952.06;;;26.37;63.18
56719;BME280;42597;40.636;0.278;2023-06-10T09:07:48;96949.78;;;26.44;64.24
56719;BME280;42597;40.636;0.278;2023-06-10T09:10:15;96963.41;;;26.61;63.08
56719;BME280;42597;40.636;0.278;2023-06-10T09:12:40;96956.31;;;26.50;62.35
56719;BME280;42597;40.636;0.278;2023-06-10T09:15:07;96959.09;;;26.50;61.71
56719;BME280;42597;40.636;0.278;2023-06-10T09:17:33;96962.09;;;26.43;62.54
56719;BME280;42597;40.636;0.278;2023-06-10T09:20:02;96962.47;;;26.54;61.51
56719;BME280;42597;40.636;0.278;2023-06-10T09:22:28;96974.81;;;26.53;61.52
56719;BME280;42597;40.636;0.278;2023-06-10T09:25:07;96974.38;;;26.64;60.07
56719;BME280;42597;40.636;0.278;2023-06-10T09:27:50;96969.00;;;26.70;60.94
56719;BME280;42597;40.636;0.278;2023-06-10T09:30:28;96979.41;;;26.56;65.17
56719;BME280;42597;40.636;0.278;2023-06-10T09:32:59;96979.63;;;26.40;62.82
56719;BME280;42597;40.636;0.278;2023-06-10T09:35:27;96991.94;;;26.39;62.91
56719;BME280;42597;40.636;0.278;2023-06-10T09:37:53;96977.25;;;26.51;61.36
56719;BME280;42597;40.636;0.278;2023-06-10T09:40:19;96980.22;;;26.66;60.07
56719;BME280;42597;40.636;0.278;2023-06-10T09:42:45;96982.78;;;26.51;60.89
56719;BME280;42597;40.636;0.278;2023-06-10T09:45:10;96989.72;;;26.56;60.99
56719;BME280;42597;40.636;0.278;2023-06-10T09:47:36;96990.50;;;26.56;62.31
56719;BME280;42597;40.636;0.278;2023-06-10T09:50:02;96989.59;;;26.60;60.83
56719;BME280;42597;40.636;0.278;2023-06-10T09:52:29;96985.66;;;26.79;61.29
56719;BME280;42597;40.636;0.278;2023-06-10T09:54:59;96983.31;;;26.77;60.35
56719;BME280;42597;40.636;0.278;2023-06-10T09:57:25;96988.09;;;26.77;59.82
56719;BME280;42597;40.636;0.278;2023-06-10T09:59:54;96989.94;;;26.71;58.99
56719;BME280;42597;40.636;0.278;2023-06-10T10:02:20;96993.50;;;26.80;66.76
56719;BME280;42597;40.636;0.278;2023-06-10T10:04:45;96988.78;;;26.99;62.60
56719;BME280;42597;40.636;0.278;2023-06-10T10:07:11;96977.69;;;26.99;65.55
56719;BME280;42597;40.636;0.278;2023-06-10T10:09:38;96990.88;;;26.77;65.73
56719;BME280;42597;40.636;0.278;2023-06-10T10:12:14;96984.28;;;26.93;60.64
56719;BME280;42597;40.636;0.278;2023-06-10T10:14:46;96987.25;;;27.07;66.07
56719;BME280;42597;40.636;0.278;2023-06-10T10:17:14;96988.19;;;27.04;67.65
56719;BME280;42597;40.636;0.278;2023-06-10T10:19:48;96988.19;;;27.04;65.19
56719;BME280;42597;40.636;0.278;2023-06-10T10:22:29;96989.47;;;27.31;65.61
56719;BME280;42597;40.636;0.278;2023-06-10T10:25:01;96979.16;;;27.41;63.59
56719;BME280;42597;40.636;0.278;2023-06-10T10:27:39;96982.69;;;27.14;63.55
56719;BME280;42597;40.636;0.278;2023-06-10T10:30:09;96988.16;;;26.95;63.95
56719;BME280;42597;40.636;0.278;2023-06-10T10:32:56;96981.47;;;27.24;63.24
56719;BME280;42597;40.636;0.278;2023-06-10T10:35:23;96973.75;;;27.55;62.71
56719;BME280;42597;40.636;0.278;2023-06-10T10:37:50;96980.19;;;27.06;65.81
56719;BME280;42597;40.636;0.278;2023-06-10T10:40:17;96973.28;;;27.29;64.57
56719;BME280;42597;40.636;0.278;2023-06-10T10:42:43;96977.75;;;27.45;63.56
56719;BME280;42597;40.636;0.278;2023-06-10T10:45:09;96975.00;;;27.36;64.37
56719;BME280;42597;40.636;0.278;2023-06-10T10:47:36;96970.38;;;27.51;64.59
56719;BME280;42597;40.636;0.278;2023-06-10T10:50:15;96970.91;;;26.91;64.19
56719;BME280;42597;40.636;0.278;2023-06-10T10:55:19;96961.13;;;27.82;63.46
56719;BME280;42597;40.636;0.278;2023-06-10T10:57:44;96966.50;;;27.67;60.95
56719;BME280;42597;40.636;0.278;2023-06-10T11:00:10;96957.13;;;27.83;60.32
56719;BME280;42597;40.636;0.278;2023-06-10T11:02:44;96966.34;;;27.98;61.23
56719;BME280;42597;40.636;0.278;2023-06-10T11:05:14;96964.16;;;28.12;60.81
56719;BME280;42597;40.636;0.278;2023-06-10T11:07:40;96962.34;;;27.63;61.42
56719;BME280;42597;40.636;0.278;2023-06-10T11:10:10;96958.00;;;27.98;60.46
56719;BME280;42597;40.636;0.278;2023-06-10T11:15:23;96962.34;;;27.90;58.60
56719;BME280;42597;40.636;0.278;2023-06-10T11:18:12;96954.91;;;27.96;55.22
56719;BME280;42597;40.636;0.278;2023-06-10T11:26:12;96951.81;;;28.03;54.77
56719;BME280;42597;40.636;0.278;2023-06-10T11:29:01;96944.75;;;27.66;56.37
56719;BME280;42597;40.636;0.278;2023-06-10T11:31:31;96945.19;;;28.10;53.61
56719;BME280;42597;40.636;0.278;2023-06-10T11:34:02;96949.16;;;28.09;54.46
56719;BME280;42597;40.636;0.278;2023-06-10T11:36:33;96946.25;;;28.03;51.15
56719;BME280;42597;40.636;0.278;2023-06-10T11:39:01;96944.16;;;28.41;52.20
56719;BME280;42597;40.636;0.278;2023-06-10T11:41:28;96942.41;;;28.52;56.17
56719;BME280;42597;40.636;0.278;2023-06-10T11:43:55;96930.66;;;28.15;59.10
56719;BME280;42597;40.636;0.278;2023-06-10T11:46:23;96939.53;;;28.28;61.61
56719;BME280;42597;40.636;0.278;2023-06-10T11:48:54;96932.94;;;28.17;61.25
56719;BME280;42597;40.636;0.278;2023-06-10T11:51:20;96924.94;;;28.19;58.73
56719;BME280;42597;40.636;0.278;2023-06-10T11:53:49;96924.75;;;28.22;60.09
56719;BME280;42597;40.636;0.278;2023-06-10T11:56:21;96926.50;;;28.01;62.65
56719;BME280;42597;40.636;0.278;2023-06-10T11:58:59;96931.03;;;27.71;63.60
56719;BME280;42597;40.636;0.278;2023-06-10T12:01:30;96919.16;;;27.80;57.72
56719;BME280;42597;40.636;0.278;2023-06-10T12:06:23;96923.16;;;27.88;59.86
56719;BME280;42597;40.636;0.278;2023-06-10T12:08:49;96927.63;;;27.95;59.12
56719;BME280;42597;40.636;0.278;2023-06-10T12:11:15;96920.09;;;27.86;58.31
56719;BME280;42597;40.636;0.278;2023-06-10T12:13:47;96915.78;;;27.76;64.81
56719;BME280;42597;40.636;0.278;2023-06-10T12:16:14;96900.94;;;27.88;62.95
56719;BME280;42597;40.636;0.278;2023-06-10T12:18:42;96902.22;;;27.60;65.11
56719;BME280;42597;40.636;0.278;2023-06-10T12:21:23;96893.41;;;27.79;64.76
56719;BME280;42597;40.636;0.278;2023-06-10T12:26:44;96890.84;;;27.39;65.70
56719;BME280;42597;40.636;0.278;2023-06-10T12:32:03;96919.50;;;27.36;67.12
56719;BME280;42597;40.636;0.278;2023-06-10T12:34:37;96929.50;;;27.34;60.53
56719;BME280;42597;40.636;0.278;2023-06-10T12:37:11;96936.16;;;26.50;68.69
56719;BME280;42597;40.636;0.278;2023-06-10T12:39:41;96959.13;;;25.97;64.04
56719;BME280;42597;40.636;0.278;2023-06-10T12:42:09;96967.13;;;26.04;64.88
56719;BME280;42597;40.636;0.278;2023-06-10T12:44:38;96973.84;;;26.47;66.00
56719;BME280;42597;40.636;0.278;2023-06-10T12:47:09;96975.41;;;25.95;65.23
56719;BME280;42597;40.636;0.278;2023-06-10T12:49:36;96977.06;;;25.93;66.18
56719;BME280;42597;40.636;0.278;2023-06-10T12:52:02;96963.81;;;25.66;66.49
56719;BME280;42597;40.636;0.278;2023-06-10T12:54:28;96973.38;;;25.74;66.94
56719;BME280;42597;40.636;0.278;2023-06-10T12:56:53;96981.41;;;25.94;67.98
56719;BME280;42597;40.636;0.278;2023-06-10T12:59:19;96996.38;;;26.05;65.95
56719;BME280;42597;40.636;0.278;2023-06-10T13:01:50;97003.22;;;26.14;65.42
56719;BME280;42597;40.636;0.278;2023-06-10T13:04:16;97012.50;;;25.98;65.16
56719;BME280;42597;40.636;0.278;2023-06-10T13:06:42;97010.78;;;26.22;63.93
56719;BME280;42597;40.636;0.278;2023-06-10T13:09:08;97004.19;;;26.29;63.89
56719;BME280;42597;40.636;0.278;2023-06-10T13:11:33;97001.94;;;26.05;64.66
56719;BME280;42597;40.636;0.278;2023-06-10T13:13:59;96990.06;;;26.36;58.55
56719;BME280;42597;40.636;0.278;2023-06-10T13:16:25;96984.22;;;26.65;58.04
56719;BME280;42597;40.636;0.278;2023-06-10T13:18:53;96989.31;;;26.67;60.54
56719;BME280;42597;40.636;0.278;2023-06-10T13:21:18;96984.41;;;26.71;61.22
56719;BME280;42597;40.636;0.278;2023-06-10T13:23:45;96982.91;;;26.48;62.50